sensor_id;sensor_type;location;lat;lon;timestamp;pressure;altitude;pressure_sealevel;temperature;humidity
53960;BME280;39866;48.638;-2.020;2023-01-25T00:01:48;103481.38;;;8.98;55.98
53960;BME280;39866;48.638;-2.020;2023-01-25T00:04:13;103480.31;;;8.90;55.76
53960;BME280;39866;48.638;-2.020;2023-01-25T00:06:38;103483.09;;;8.96;55.83
53960;BME280;39866;48.638;-2.020;2023-01-25T00:09:04;103477.84;;;8.99;56.04
53960;BME280;39866;48.638;-2.020;2023-01-25T00:11:30;103485.91;;;9.04;55.93
53960;BME280;39866;48.638;-2.020;2023-01-25T00:13:55;103478.84;;;9.04;55.75
53960;BME280;39866;48.638;-2.020;2023-01-25T00:16:22;103483.16;;;8.99;55.83
53960;BME280;39866;48.638;-2.020;2023-01-25T00:18:48;103479.44;;;8.91;56.37
53960;BME280;39866;48.638;-2.020;2023-01-25T00:21:19;103479.44;;;8.91;56.40
53960;BME280;39866;48.638;-2.020;2023-01-25T00:23:44;103474.03;;;8.86;56.06
53960;BME280;39866;48.638;-2.020;2023-01-25T00:26:10;103453.56;;;8.82;56.60
53960;BME280;39866;48.638;-2.020;2023-01-25T00:28:35;103479.78;;;9.06;56.17
53960;BME280;39866;48.638;-2.020;2023-01-25T00:31:02;103479.91;;;9.12;56.01
53960;BME280;39866;48.638;-2.020;2023-01-25T00:35:56;103477.22;;;9.12;56.03
53960;BME280;39866;48.638;-2.020;2023-01-25T00:38:30;103471.66;;;8.99;55.62
53960;BME280;39866;48.638;-2.020;2023-01-25T00:40:58;103464.56;;;8.99;55.70
53960;BME280;39866;48.638;-2.020;2023-01-25T00:43:24;103471.66;;;8.99;55.93
53960;BME280;39866;48.638;-2.020;2023-01-25T00:45:49;103460.47;;;8.74;55.56
53960;BME280;39866;48.638;-2.020;2023-01-25T00:48:14;103467.94;;;8.92;55.71
53960;BME280;39866;48.638;-2.020;2023-01-25T00:50:40;103469.69;;;8.90;55.63
53960;BME280;39866;48.638;-2.020;2023-01-25T00:53:05;103453.47;;;8.78;55.58
53960;BME280;39866;48.638;-2.020;2023-01-25T00:55:31;103471.31;;;8.83;55.59
53960;BME280;39866;48.638;-2.020;2023-01-25T00:57:56;103471.38;;;8.86;55.94
53960;BME280;39866;48.638;-2.020;2023-01-25T01:00:21;103466.00;;;8.85;55.93
53960;BME280;39866;48.638;-2.020;2023-01-25T01:02:47;103465.13;;;8.84;55.70
53960;BME280;39866;48.638;-2.020;2023-01-25T01:05:12;103458.88;;;8.82;56.07
53960;BME280;39866;48.638;-2.020;2023-01-25T01:07:37;103456.34;;;8.88;55.75
53960;BME280;39866;48.638;-2.020;2023-01-25T01:10:03;103455.38;;;8.85;56.11
53960;BME280;39866;48.638;-2.020;2023-01-25T01:12:29;103463.63;;;8.97;55.79
53960;BME280;39866;48.638;-2.020;2023-01-25T01:14:54;103457.25;;;8.89;56.11
53960;BME280;39866;48.638;-2.020;2023-01-25T01:17:20;103460.75;;;8.86;55.56
53960;BME280;39866;48.638;-2.020;2023-01-25T01:19:46;103452.09;;;8.97;55.86
53960;BME280;39866;48.638;-2.020;2023-01-25T01:22:11;103447.38;;;8.82;56.01
53960;BME280;39866;48.638;-2.020;2023-01-25T01:24:36;103451.81;;;8.83;56.17
53960;BME280;39866;48.638;-2.020;2023-01-25T01:27:02;103446.44;;;8.81;55.96
53960;BME280;39866;48.638;-2.020;2023-01-25T01:29:27;103452.63;;;8.80;55.68
53960;BME280;39866;48.638;-2.020;2023-01-25T01:31:53;103440.22;;;8.81;55.92
53960;BME280;39866;48.638;-2.020;2023-01-25T01:34:18;103438.47;;;8.81;56.07
53960;BME280;39866;48.638;-2.020;2023-01-25T01:36:44;103449.94;;;8.79;55.84
53960;BME280;39866;48.638;-2.020;2023-01-25T01:39:10;103433.03;;;8.74;55.66
53960;BME280;39866;48.638;-2.020;2023-01-25T01:41:36;103437.13;;;8.61;56.12
53960;BME280;39866;48.638;-2.020;2023-01-25T01:44:05;103435.53;;;8.69;56.01
53960;BME280;39866;48.638;-2.020;2023-01-25T01:46:38;103435.34;;;8.60;55.84
53960;BME280;39866;48.638;-2.020;2023-01-25T01:49:14;103437.28;;;8.65;56.48
53960;BME280;39866;48.638;-2.020;2023-01-25T01:54:29;103443.38;;;8.61;56.03
53960;BME280;39866;48.638;-2.020;2023-01-25T02:02:06;103451.66;;;8.77;56.55
53960;BME280;39866;48.638;-2.020;2023-01-25T02:04:32;103452.56;;;8.77;56.19
53960;BME280;39866;48.638;-2.020;2023-01-25T02:07:14;103452.72;;;8.85;56.11
53960;BME280;39866;48.638;-2.020;2023-01-25T02:09:40;103450.69;;;8.73;56.00
53960;BME280;39866;48.638;-2.020;2023-01-25T02:12:08;103444.44;;;8.70;55.91
53960;BME280;39866;48.638;-2.020;2023-01-25T02:14:36;103441.72;;;8.66;55.98
53960;BME280;39866;48.638;-2.020;2023-01-25T02:17:03;103431.88;;;8.62;56.39
53960;BME280;39866;48.638;-2.020;2023-01-25T02:19:49;103443.66;;;8.75;56.08
53960;BME280;39866;48.638;-2.020;2023-01-25T02:22:21;103434.28;;;8.52;55.75
53960;BME280;39866;48.638;-2.020;2023-01-25T02:25:10;103443.38;;;8.61;55.77
53960;BME280;39866;48.638;-2.020;2023-01-25T02:27:42;103448.03;;;8.73;55.73
53960;BME280;39866;48.638;-2.020;2023-01-25T02:30:08;103436.59;;;8.77;55.89
53960;BME280;39866;48.638;-2.020;2023-01-25T02:32:34;103446.44;;;8.81;55.63
53960;BME280;39866;48.638;-2.020;2023-01-25T02:34:59;103453.66;;;8.87;55.79
53960;BME280;39866;48.638;-2.020;2023-01-25T02:37:25;103443.91;;;8.86;55.72
53960;BME280;39866;48.638;-2.020;2023-01-25T02:39:51;103448.31;;;8.85;55.56
53960;BME280;39866;48.638;-2.020;2023-01-25T02:42:16;103442.97;;;8.84;55.82
53960;BME280;39866;48.638;-2.020;2023-01-25T02:44:42;103445.78;;;8.91;55.74
53960;BME280;39866;48.638;-2.020;2023-01-25T02:47:07;103445.69;;;8.87;55.38
53960;BME280;39866;48.638;-2.020;2023-01-25T02:49:36;103439.41;;;8.82;55.20
53960;BME280;39866;48.638;-2.020;2023-01-25T02:52:03;103445.88;;;8.96;55.54
53960;BME280;39866;48.638;-2.020;2023-01-25T02:54:29;103455.66;;;8.97;55.71
53960;BME280;39866;48.638;-2.020;2023-01-25T02:56:55;103444.91;;;8.91;55.25
53960;BME280;39866;48.638;-2.020;2023-01-25T02:59:21;103452.16;;;9.00;55.02
53960;BME280;39866;48.638;-2.020;2023-01-25T03:01:47;103444.19;;;8.98;55.40
53960;BME280;39866;48.638;-2.020;2023-01-25T03:04:13;103447.66;;;8.97;55.38
53960;BME280;39866;48.638;-2.020;2023-01-25T03:06:38;103440.72;;;9.02;55.25
53960;BME280;39866;48.638;-2.020;2023-01-25T03:09:06;103446.03;;;9.04;55.70
53960;BME280;39866;48.638;-2.020;2023-01-25T03:11:32;103450.50;;;9.05;55.60
53960;BME280;39866;48.638;-2.020;2023-01-25T03:13:57;103428.34;;;9.04;55.66
53960;BME280;39866;48.638;-2.020;2023-01-25T03:16:23;103437.28;;;9.09;55.20
53960;BME280;39866;48.638;-2.020;2023-01-25T03:18:51;103438.16;;;9.07;55.32
53960;BME280;39866;48.638;-2.020;2023-01-25T03:21:18;103438.09;;;9.05;55.22
53960;BME280;39866;48.638;-2.020;2023-01-25T03:23:45;103436.16;;;8.97;55.30
53960;BME280;39866;48.638;-2.020;2023-01-25T03:26:13;103437.91;;;8.95;54.99
53960;BME280;39866;48.638;-2.020;2023-01-25T03:28:40;103444.81;;;8.86;54.72
53960;BME280;39866;48.638;-2.020;2023-01-25T03:31:07;103437.13;;;9.02;54.75
53960;BME280;39866;48.638;-2.020;2023-01-25T03:33:33;103442.50;;;9.03;54.50
53960;BME280;39866;48.638;-2.020;2023-01-25T03:35:59;103439.00;;;9.06;54.91
53960;BME280;39866;48.638;-2.020;2023-01-25T03:38:26;103422.28;;;9.11;55.08
53960;BME280;39866;48.638;-2.020;2023-01-25T03:40:51;103432.88;;;9.10;54.97
53960;BME280;39866;48.638;-2.020;2023-01-25T03:43:17;103421.25;;;9.05;55.30
53960;BME280;39866;48.638;-2.020;2023-01-25T03:45:42;103423.03;;;9.06;55.21
53960;BME280;39866;48.638;-2.020;2023-01-25T03:48:08;103414.22;;;9.07;54.97
53960;BME280;39866;48.638;-2.020;2023-01-25T03:50:33;103421.41;;;9.12;55.10
53960;BME280;39866;48.638;-2.020;2023-01-25T03:56:08;103417.38;;;8.87;55.47
53960;BME280;39866;48.638;-2.020;2023-01-25T03:58:35;103416.41;;;8.85;56.11
53960;BME280;39866;48.638;-2.020;2023-01-25T04:01:01;103401.28;;;8.81;55.42
53960;BME280;39866;48.638;-2.020;2023-01-25T04:03:27;103411.19;;;8.88;56.05
53960;BME280;39866;48.638;-2.020;2023-01-25T04:05:53;103408.44;;;8.85;55.70
53960;BME280;39866;48.638;-2.020;2023-01-25T04:08:19;103404.16;;;8.90;55.56
53960;BME280;39866;48.638;-2.020;2023-01-25T04:10:52;103411.25;;;8.91;55.96
53960;BME280;39866;48.638;-2.020;2023-01-25T04:13:19;103413.84;;;8.88;55.96
53960;BME280;39866;48.638;-2.020;2023-01-25T04:15:45;103411.25;;;8.91;55.70
53960;BME280;39866;48.638;-2.020;2023-01-25T04:18:10;103403.34;;;8.95;56.16
53960;BME280;39866;48.638;-2.020;2023-01-25T04:20:36;103402.84;;;8.72;56.12
53960;BME280;39866;48.638;-2.020;2023-01-25T04:23:01;103402.28;;;8.86;56.01
53960;BME280;39866;48.638;-2.020;2023-01-25T04:25:26;103400.53;;;8.88;56.11
53960;BME280;39866;48.638;-2.020;2023-01-25T04:27:52;103413.09;;;8.96;55.78
53960;BME280;39866;48.638;-2.020;2023-01-25T04:30:17;103405.84;;;8.87;56.01
53960;BME280;39866;48.638;-2.020;2023-01-25T04:32:43;103417.44;;;8.92;55.95
53960;BME280;39866;48.638;-2.020;2023-01-25T04:35:08;103401.66;;;8.98;55.88
53960;BME280;39866;48.638;-2.020;2023-01-25T04:37:34;103400.78;;;8.99;55.90
53960;BME280;39866;48.638;-2.020;2023-01-25T04:39:59;103399.84;;;8.97;55.98
53960;BME280;39866;48.638;-2.020;2023-01-25T04:42:25;103398.94;;;8.97;55.61
53960;BME280;39866;48.638;-2.020;2023-01-25T04:44:50;103404.41;;;9.03;55.67
53960;BME280;39866;48.638;-2.020;2023-01-25T04:47:15;103395.47;;;8.99;55.67
53960;BME280;39866;48.638;-2.020;2023-01-25T04:49:40;103387.31;;;8.90;55.47
53960;BME280;39866;48.638;-2.020;2023-01-25T04:52:06;103393.56;;;8.93;55.46
53960;BME280;39866;48.638;-2.020;2023-01-25T04:54:31;103392.81;;;8.99;55.67
53960;BME280;39866;48.638;-2.020;2023-01-25T04:56:56;103401.75;;;9.04;55.49
53960;BME280;39866;48.638;-2.020;2023-01-25T04:59:22;103396.50;;;9.07;55.51
53960;BME280;39866;48.638;-2.020;2023-01-25T05:01:47;103392.97;;;9.08;55.69
53960;BME280;39866;48.638;-2.020;2023-01-25T05:04:12;103397.38;;;9.06;55.50
53960;BME280;39866;48.638;-2.020;2023-01-25T05:06:38;103385.03;;;9.10;55.68
53960;BME280;39866;48.638;-2.020;2023-01-25T05:09:03;103389.28;;;9.00;55.82
53960;BME280;39866;48.638;-2.020;2023-01-25T05:11:28;103388.50;;;9.06;55.61
53960;BME280;39866;48.638;-2.020;2023-01-25T05:13:54;103396.59;;;9.10;55.54
53960;BME280;39866;48.638;-2.020;2023-01-25T05:16:19;103389.59;;;9.15;55.49
53960;BME280;39866;48.638;-2.020;2023-01-25T05:18:44;103382.41;;;9.11;55.44
53960;BME280;39866;48.638;-2.020;2023-01-25T05:21:10;103389.44;;;9.08;55.44
53960;BME280;39866;48.638;-2.020;2023-01-25T05:23:55;103385.06;;;9.11;55.42
53960;BME280;39866;48.638;-2.020;2023-01-25T05:26:20;103389.44;;;9.09;55.37
53960;BME280;39866;48.638;-2.020;2023-01-25T05:29:04;103394.66;;;9.03;55.36
53960;BME280;39866;48.638;-2.020;2023-01-25T05:31:30;103397.56;;;9.17;55.15
53960;BME280;39866;48.638;-2.020;2023-01-25T05:33:55;103387.84;;;9.17;55.54
53960;BME280;39866;48.638;-2.020;2023-01-25T05:36:20;103388.72;;;9.18;55.45
53960;BME280;39866;48.638;-2.020;2023-01-25T05:38:46;103387.88;;;9.19;55.51
53960;BME280;39866;48.638;-2.020;2023-01-25T05:41:11;103381.69;;;9.20;55.46
53960;BME280;39866;48.638;-2.020;2023-01-25T05:43:36;103384.19;;;9.11;55.86
53960;BME280;39866;48.638;-2.020;2023-01-25T05:46:02;103390.34;;;9.10;55.79
53960;BME280;39866;48.638;-2.020;2023-01-25T05:48:29;103392.03;;;9.05;56.17
53960;BME280;39866;48.638;-2.020;2023-01-25T05:50:56;103395.72;;;9.11;55.89
53960;BME280;39866;48.638;-2.020;2023-01-25T05:53:26;103400.16;;;9.12;55.65
53960;BME280;39866;48.638;-2.020;2023-01-25T05:55:51;103391.38;;;9.16;55.81
53960;BME280;39866;48.638;-2.020;2023-01-25T05:58:16;103402.13;;;9.23;55.60
53960;BME280;39866;48.638;-2.020;2023-01-25T06:00:42;103392.41;;;9.23;55.53
53960;BME280;39866;48.638;-2.020;2023-01-25T06:03:07;103377.28;;;9.21;55.76
53960;BME280;39866;48.638;-2.020;2023-01-25T06:05:32;103394.16;;;9.23;55.83
53960;BME280;39866;48.638;-2.020;2023-01-25T06:07:58;103383.47;;;9.21;56.03
53960;BME280;39866;48.638;-2.020;2023-01-25T06:10:23;103387.00;;;9.20;55.60
53960;BME280;39866;48.638;-2.020;2023-01-25T06:12:49;103388.78;;;9.20;55.85
53960;BME280;39866;48.638;-2.020;2023-01-25T06:15:14;103383.41;;;9.18;55.66
53960;BME280;39866;48.638;-2.020;2023-01-25T06:17:39;103387.91;;;9.22;55.75
53960;BME280;39866;48.638;-2.020;2023-01-25T06:20:05;103387.00;;;9.20;55.49
53960;BME280;39866;48.638;-2.020;2023-01-25T06:22:30;103385.25;;;9.22;55.81
53960;BME280;39866;48.638;-2.020;2023-01-25T06:24:56;103385.16;;;9.16;55.59
53960;BME280;39866;48.638;-2.020;2023-01-25T06:27:21;103369.13;;;9.11;55.67
53960;BME280;39866;48.638;-2.020;2023-01-25T06:29:46;103385.22;;;9.19;55.60
53960;BME280;39866;48.638;-2.020;2023-01-25T06:32:12;103378.16;;;9.20;55.84
53960;BME280;39866;48.638;-2.020;2023-01-25T06:34:37;103383.53;;;9.24;55.84
53960;BME280;39866;48.638;-2.020;2023-01-25T06:37:02;103380.88;;;9.24;55.41
53960;BME280;39866;48.638;-2.020;2023-01-25T06:39:28;103377.19;;;9.16;56.22
53960;BME280;39866;48.638;-2.020;2023-01-25T06:41:53;103383.47;;;9.21;56.35
53960;BME280;39866;48.638;-2.020;2023-01-25T06:44:20;103378.16;;;9.21;56.15
53960;BME280;39866;48.638;-2.020;2023-01-25T06:46:45;103381.78;;;9.25;56.31
53960;BME280;39866;48.638;-2.020;2023-01-25T06:49:10;103383.56;;;9.26;55.72
53960;BME280;39866;48.638;-2.020;2023-01-25T06:51:36;103380.06;;;9.28;56.30
53960;BME280;39866;48.638;-2.020;2023-01-25T06:54:02;103380.97;;;9.30;55.98
53960;BME280;39866;48.638;-2.020;2023-01-25T06:56:30;103378.22;;;9.23;56.21
53960;BME280;39866;48.638;-2.020;2023-01-25T06:58:56;103388.88;;;9.26;56.49
53960;BME280;39866;48.638;-2.020;2023-01-25T07:01:23;103383.47;;;9.21;56.83
53960;BME280;39866;48.638;-2.020;2023-01-25T07:03:56;103378.16;;;9.21;56.41
53960;BME280;39866;48.638;-2.020;2023-01-25T07:06:22;103386.19;;;9.23;56.32
53960;BME280;39866;48.638;-2.020;2023-01-25T07:08:48;103389.59;;;9.17;56.54
53960;BME280;39866;48.638;-2.020;2023-01-25T07:11:14;103368.16;;;9.06;56.40
53960;BME280;39866;48.638;-2.020;2023-01-25T07:13:41;103396.59;;;9.12;56.97
53960;BME280;39866;48.638;-2.020;2023-01-25T07:16:12;103386.84;;;9.11;57.07
53960;BME280;39866;48.638;-2.020;2023-01-25T07:18:37;103392.09;;;9.08;56.95
53960;BME280;39866;48.638;-2.020;2023-01-25T07:21:05;103394.81;;;9.11;57.02
53960;BME280;39866;48.638;-2.020;2023-01-25T07:23:32;103392.16;;;9.11;56.76
53960;BME280;39866;48.638;-2.020;2023-01-25T07:25:58;103396.69;;;9.16;56.93
53960;BME280;39866;48.638;-2.020;2023-01-25T07:28:24;103392.88;;;9.02;57.21
53960;BME280;39866;48.638;-2.020;2023-01-25T07:30:50;103385.47;;;8.86;57.05
53960;BME280;39866;48.638;-2.020;2023-01-25T07:33:16;103389.91;;;8.87;57.32
53960;BME280;39866;48.638;-2.020;2023-01-25T07:35:41;103395.56;;;9.04;57.37
53960;BME280;39866;48.638;-2.020;2023-01-25T07:38:07;103387.72;;;9.11;57.00
53960;BME280;39866;48.638;-2.020;2023-01-25T07:40:32;103387.81;;;9.16;57.14
53960;BME280;39866;48.638;-2.020;2023-01-25T07:42:57;103383.38;;;9.15;57.37
53960;BME280;39866;48.638;-2.020;2023-01-25T07:45:23;103383.28;;;9.10;57.28
53960;BME280;39866;48.638;-2.020;2023-01-25T07:47:56;103380.66;;;9.13;57.82
53960;BME280;39866;48.638;-2.020;2023-01-25T07:50:22;103390.31;;;9.07;57.84
53960;BME280;39866;48.638;-2.020;2023-01-25T07:52:47;103384.34;;;9.20;57.70
53960;BME280;39866;48.638;-2.020;2023-01-25T07:55:12;103376.41;;;9.22;57.57
53960;BME280;39866;48.638;-2.020;2023-01-25T07:57:38;103383.63;;;9.27;57.63
53960;BME280;39866;48.638;-2.020;2023-01-25T08:00:03;103366.63;;;9.21;57.69
53960;BME280;39866;48.638;-2.020;2023-01-25T08:02:31;103364.09;;;9.27;57.51
53960;BME280;39866;48.638;-2.020;2023-01-25T08:04:57;103372.97;;;9.27;57.46
53960;BME280;39866;48.638;-2.020;2023-01-25T08:07:22;103371.34;;;9.35;57.30
53960;BME280;39866;48.638;-2.020;2023-01-25T08:09:48;103367.84;;;9.38;57.54
53960;BME280;39866;48.638;-2.020;2023-01-25T08:12:13;103372.25;;;9.36;57.92
53960;BME280;39866;48.638;-2.020;2023-01-25T08:14:38;103377.59;;;9.37;57.76
53960;BME280;39866;48.638;-2.020;2023-01-25T08:17:04;103370.50;;;9.38;57.36
53960;BME280;39866;48.638;-2.020;2023-01-25T08:19:29;103371.94;;;9.19;57.42
53960;BME280;39866;48.638;-2.020;2023-01-25T08:21:54;103374.75;;;9.28;57.40
53960;BME280;39866;48.638;-2.020;2023-01-25T08:24:20;103371.28;;;9.32;57.67
53960;BME280;39866;48.638;-2.020;2023-01-25T08:26:45;103366.88;;;9.33;57.84
53960;BME280;39866;48.638;-2.020;2023-01-25T08:29:11;103372.91;;;9.24;57.59
53960;BME280;39866;48.638;-2.020;2023-01-25T08:31:39;103371.28;;;9.32;57.70
53960;BME280;39866;48.638;-2.020;2023-01-25T08:34:05;103371.28;;;9.32;57.61
53960;BME280;39866;48.638;-2.020;2023-01-25T08:36:31;103370.47;;;9.35;57.56
53960;BME280;39866;48.638;-2.020;2023-01-25T08:39:01;103369.53;;;9.34;57.51
53960;BME280;39866;48.638;-2.020;2023-01-25T08:41:29;103368.50;;;9.26;57.70
53960;BME280;39866;48.638;-2.020;2023-01-25T08:43:55;103365.00;;;9.27;57.71
53960;BME280;39866;48.638;-2.020;2023-01-25T08:46:21;103373.94;;;9.32;57.62
53960;BME280;39866;48.638;-2.020;2023-01-25T08:48:47;103365.97;;;9.32;57.90
53960;BME280;39866;48.638;-2.020;2023-01-25T08:51:14;103356.16;;;9.30;58.24
53960;BME280;39866;48.638;-2.020;2023-01-25T08:53:40;103372.91;;;9.23;58.08
53960;BME280;39866;48.638;-2.020;2023-01-25T08:56:11;103385.31;;;9.24;58.08
53960;BME280;39866;48.638;-2.020;2023-01-25T08:58:39;103385.50;;;9.34;57.81
53960;BME280;39866;48.638;-2.020;2023-01-25T09:01:07;103385.63;;;9.40;57.75
53960;BME280;39866;48.638;-2.020;2023-01-25T09:03:41;103379.38;;;9.38;57.93
53960;BME280;39866;48.638;-2.020;2023-01-25T09:06:07;103377.81;;;9.50;57.63
53960;BME280;39866;48.638;-2.020;2023-01-25T09:08:33;103383.19;;;9.53;57.70
53960;BME280;39866;48.638;-2.020;2023-01-25T09:11:03;103384.06;;;9.53;57.85
53960;BME280;39866;48.638;-2.020;2023-01-25T09:13:29;103375.25;;;9.56;57.62
53960;BME280;39866;48.638;-2.020;2023-01-25T09:16:02;103373.34;;;9.47;57.60
53960;BME280;39866;48.638;-2.020;2023-01-25T09:18:29;103383.94;;;9.46;57.90
53960;BME280;39866;48.638;-2.020;2023-01-25T09:20:55;103365.31;;;9.46;57.98
53960;BME280;39866;48.638;-2.020;2023-01-25T09:23:21;103355.34;;;9.32;58.02
53960;BME280;39866;48.638;-2.020;2023-01-25T09:25:57;103368.88;;;9.46;58.01
53960;BME280;39866;48.638;-2.020;2023-01-25T09:28:24;103372.47;;;9.48;58.02
53960;BME280;39866;48.638;-2.020;2023-01-25T09:30:58;103373.41;;;9.52;58.07
53960;BME280;39866;48.638;-2.020;2023-01-25T09:33:29;103366.47;;;9.60;57.76
53960;BME280;39866;48.638;-2.020;2023-01-25T09:35:55;103367.97;;;9.46;57.88
53960;BME280;39866;48.638;-2.020;2023-01-25T09:38:20;103367.31;;;9.57;57.96
53960;BME280;39866;48.638;-2.020;2023-01-25T09:46:11;103353.09;;;9.55;57.73
53960;BME280;39866;48.638;-2.020;2023-01-25T09:48:48;103354.88;;;9.56;57.79
53960;BME280;39866;48.638;-2.020;2023-01-25T09:51:28;103357.53;;;9.56;57.44
53960;BME280;39866;48.638;-2.020;2023-01-25T09:54:03;103354.06;;;9.62;57.79
53960;BME280;39866;48.638;-2.020;2023-01-25T09:56:33;103343.50;;;9.65;57.66
53960;BME280;39866;48.638;-2.020;2023-01-25T09:59:03;103350.59;;;9.66;57.56
53960;BME280;39866;48.638;-2.020;2023-01-25T10:01:48;103346.34;;;9.77;57.29
53960;BME280;39866;48.638;-2.020;2023-01-25T10:04:16;103337.56;;;9.83;57.26
53960;BME280;39866;48.638;-2.020;2023-01-25T10:06:43;103329.50;;;9.78;57.57
53960;BME280;39866;48.638;-2.020;2023-01-25T10:09:17;103327.66;;;9.74;57.52
53960;BME280;39866;48.638;-2.020;2023-01-25T10:11:44;103323.34;;;9.81;57.65
53960;BME280;39866;48.638;-2.020;2023-01-25T10:14:15;103322.28;;;9.71;57.45
53960;BME280;39866;48.638;-2.020;2023-01-25T10:22:14;103309.22;;;9.85;57.17
53960;BME280;39866;48.638;-2.020;2023-01-25T10:27:29;103312.66;;;9.79;57.14
53960;BME280;39866;48.638;-2.020;2023-01-25T10:30:01;103307.41;;;9.82;57.14
53960;BME280;39866;48.638;-2.020;2023-01-25T10:32:29;103306.63;;;9.89;56.37
53960;BME280;39866;48.638;-2.020;2023-01-25T10:35:20;103313.66;;;9.84;56.78
53960;BME280;39866;48.638;-2.020;2023-01-25T10:37:44;103320.06;;;9.99;56.96
53960;BME280;39866;48.638;-2.020;2023-01-25T10:40:16;103306.88;;;10.05;56.59
53960;BME280;39866;48.638;-2.020;2023-01-25T10:42:47;103298.59;;;9.86;56.32
53960;BME280;39866;48.638;-2.020;2023-01-25T10:45:15;103301.44;;;9.97;56.58
53960;BME280;39866;48.638;-2.020;2023-01-25T10:47:43;103297.94;;;10.01;56.43
53960;BME280;39866;48.638;-2.020;2023-01-25T10:53:02;103295.28;;;10.01;56.50
53960;BME280;39866;48.638;-2.020;2023-01-25T10:55:27;103282.91;;;10.05;56.55
53960;BME280;39866;48.638;-2.020;2023-01-25T10:57:54;103281.25;;;10.16;56.22
53960;BME280;39866;48.638;-2.020;2023-01-25T11:00:39;103281.19;;;10.11;56.52
53960;BME280;39866;48.638;-2.020;2023-01-25T11:03:05;103279.41;;;10.10;56.12
53960;BME280;39866;48.638;-2.020;2023-01-25T11:05:38;103275.09;;;10.17;56.51
53960;BME280;39866;48.638;-2.020;2023-01-25T11:08:39;103265.47;;;10.27;56.32
53960;BME280;39866;48.638;-2.020;2023-01-25T11:11:25;103259.31;;;10.29;56.01
53960;BME280;39866;48.638;-2.020;2023-01-25T11:13:55;103254.81;;;10.25;56.15
53960;BME280;39866;48.638;-2.020;2023-01-25T11:16:30;103246.84;;;10.28;56.20
53960;BME280;39866;48.638;-2.020;2023-01-25T11:18:57;103243.31;;;10.29;56.10
53960;BME280;39866;48.638;-2.020;2023-01-25T11:21:28;103245.16;;;10.35;56.05
53960;BME280;39866;48.638;-2.020;2023-01-25T11:24:14;103236.34;;;10.40;56.13
53960;BME280;39866;48.638;-2.020;2023-01-25T11:26:41;103240.78;;;10.40;56.05
53960;BME280;39866;48.638;-2.020;2023-01-25T11:29:20;103229.38;;;10.50;56.12
53960;BME280;39866;48.638;-2.020;2023-01-25T11:31:49;103231.09;;;10.47;55.81
53960;BME280;39866;48.638;-2.020;2023-01-25T11:34:20;103224.94;;;10.52;55.77
53960;BME280;39866;48.638;-2.020;2023-01-25T11:50:40;103209.97;;;10.63;55.64
53960;BME280;39866;48.638;-2.020;2023-01-25T11:53:31;103207.34;;;10.66;55.63
53960;BME280;39866;48.638;-2.020;2023-01-25T11:59:05;103201.13;;;10.69;55.53
53960;BME280;39866;48.638;-2.020;2023-01-25T12:01:43;103192.19;;;10.64;55.66
53960;BME280;39866;48.638;-2.020;2023-01-25T12:04:49;103186.91;;;10.67;55.56
53960;BME280;39866;48.638;-2.020;2023-01-25T12:10:31;103173.59;;;10.69;55.55
53960;BME280;39866;48.638;-2.020;2023-01-25T12:13:27;103171.97;;;10.84;55.28
53960;BME280;39866;48.638;-2.020;2023-01-25T12:16:45;103169.38;;;10.90;54.91
53960;BME280;39866;48.638;-2.020;2023-01-25T12:24:48;103149.59;;;10.69;55.42
53960;BME280;39866;48.638;-2.020;2023-01-25T12:30:12;103136.50;;;10.93;54.90
53960;BME280;39866;48.638;-2.020;2023-01-25T12:32:46;103133.84;;;10.91;55.00
53960;BME280;39866;48.638;-2.020;2023-01-25T12:38:29;103116.03;;;10.86;55.04
53960;BME280;39866;48.638;-2.020;2023-01-25T12:41:04;103124.09;;;10.95;54.86
53960;BME280;39866;48.638;-2.020;2023-01-25T12:43:47;103109.88;;;10.96;54.61
53960;BME280;39866;48.638;-2.020;2023-01-25T12:46:22;103114.34;;;10.99;54.53
53960;BME280;39866;48.638;-2.020;2023-01-25T12:48:49;103111.66;;;10.97;54.71
53960;BME280;39866;48.638;-2.020;2023-01-25T12:51:19;103088.44;;;10.85;54.75
53960;BME280;39866;48.638;-2.020;2023-01-25T12:53:47;103111.56;;;10.82;55.15
53960;BME280;39866;48.638;-2.020;2023-01-25T12:58:52;103111.53;;;10.80;55.42
53960;BME280;39866;48.638;-2.020;2023-01-25T13:01:39;103107.06;;;10.79;55.47
53960;BME280;39866;48.638;-2.020;2023-01-25T13:06:49;103106.28;;;10.91;55.06
53960;BME280;39866;48.638;-2.020;2023-01-25T13:11:48;103097.31;;;10.81;55.34
53960;BME280;39866;48.638;-2.020;2023-01-25T13:16:41;103079.41;;;10.65;55.83
53960;BME280;39866;48.638;-2.020;2023-01-25T13:21:55;103069.81;;;10.87;55.62
53960;BME280;39866;48.638;-2.020;2023-01-25T13:24:27;103063.59;;;10.88;55.34
53960;BME280;39866;48.638;-2.020;2023-01-25T13:32:58;103070.81;;;11.01;55.44
53960;BME280;39866;48.638;-2.020;2023-01-25T13:34:58;103064.56;;;11.01;55.63
53960;BME280;39866;48.638;-2.020;2023-01-25T13:37:26;103076.22;;;11.12;55.08
53960;BME280;39866;48.638;-2.020;2023-01-25T13:39:57;103071.78;;;11.17;54.97
53960;BME280;39866;48.638;-2.020;2023-01-25T13:42:30;103070.88;;;11.10;55.38
53960;BME280;39866;48.638;-2.020;2023-01-25T13:45:15;103067.31;;;11.11;55.38
53960;BME280;39866;48.638;-2.020;2023-01-25T13:47:44;103072.59;;;11.05;55.92
53960;BME280;39866;48.638;-2.020;2023-01-25T13:50:24;103072.53;;;10.91;56.07
53960;BME280;39866;48.638;-2.020;2023-01-25T13:53:04;103061.94;;;11.05;55.71
53960;BME280;39866;48.638;-2.020;2023-01-25T13:55:42;103056.59;;;11.01;55.60
53960;BME280;39866;48.638;-2.020;2023-01-25T14:00:56;103061.09;;;11.12;55.42
53960;BME280;39866;48.638;-2.020;2023-01-25T14:03:27;103062.00;;;11.18;55.39
53960;BME280;39866;48.638;-2.020;2023-01-25T14:05:55;103059.38;;;11.22;55.66
53960;BME280;39866;48.638;-2.020;2023-01-25T14:08:21;103038.91;;;11.16;55.66
53960;BME280;39866;48.638;-2.020;2023-01-25T14:10:48;103041.56;;;11.10;55.83
53960;BME280;39866;48.638;-2.020;2023-01-25T14:13:15;103041.44;;;10.97;55.94
53960;BME280;39866;48.638;-2.020;2023-01-25T14:15:51;103047.75;;;11.06;55.88
53960;BME280;39866;48.638;-2.020;2023-01-25T14:18:18;103050.41;;;11.08;56.09